TimeCDT,TemperatureF,Dew PointF,Humidity,Sea Level PressureIn,VisibilityMPH,Wind Direction,Wind SpeedMPH,Gust SpeedMPH,PrecipitationIn,Events,Conditions,WindDirDegrees,DateUTC
12:15 AM,30.2,23.0,75,30.07,10.0,North,6.9,-,N/A,,Overcast,360,2014-04-04 05:15:00
12:35 AM,28.4,23.0,80,30.07,10.0,North,5.8,-,N/A,,Overcast,10,2014-04-04 05:35:00
12:55 AM,28.4,23.0,80,30.08,10.0,NNW,5.8,-,N/A,,Overcast,340,2014-04-04 05:55:00
1:15 AM,28.4,23.0,80,30.07,10.0,North,6.9,-,N/A,,Overcast,10,2014-04-04 06:15:00
1:35 AM,28.4,23.0,80,30.07,10.0,NNE,6.9,-,N/A,,Overcast,30,2014-04-04 06:35:00
1:55 AM,28.4,23.0,80,30.07,10.0,NE,6.9,-,N/A,,Overcast,40,2014-04-04 06:55:00
2:15 AM,28.4,23.0,80,30.07,10.0,NE,6.9,-,N/A,,Overcast,50,2014-04-04 07:15:00
2:35 AM,26.6,23.0,86,30.06,10.0,ENE,8.1,-,N/A,,Overcast,60,2014-04-04 07:35:00
2:55 AM,26.6,23.0,86,30.06,10.0,ENE,5.8,-,N/A,,Overcast,60,2014-04-04 07:55:00
3:15 AM,26.6,23.0,86,30.05,10.0,NE,4.6,-,N/A,,Overcast,50,2014-04-04 08:15:00
3:35 AM,26.6,21.2,80,30.05,10.0,Calm,Calm,-,N/A,,Overcast,0,2014-04-04 08:35:00
3:55 AM,26.6,23.0,86,30.05,10.0,Calm,Calm,-,N/A,,Overcast,0,2014-04-04 08:55:00
4:15 AM,26.6,21.2,80,30.05,10.0,Calm,Calm,-,N/A,,Overcast,0,2014-04-04 09:15:00
4:35 AM,26.6,21.2,80,30.05,10.0,SE,5.8,-,N/A,,Overcast,130,2014-04-04 09:35:00
4:55 AM,24.8,21.2,86,30.05,10.0,SE,4.6,-,N/A,,Overcast,130,2014-04-04 09:55:00
5:15 AM,23.0,19.4,86,30.04,10.0,ESE,5.8,-,N/A,,Scattered Clouds,120,2014-04-04 10:15:00
5:35 AM,21.2,19.4,93,30.04,10.0,SE,5.8,-,N/A,,Clear,130,2014-04-04 10:35:00
5:55 AM,19.4,19.4,100,30.04,10.0,SE,5.8,-,N/A,,Clear,130,2014-04-04 10:55:00
6:15 AM,19.4,19.4,100,30.04,10.0,SSE,3.5,-,N/A,,Clear,160,2014-04-04 11:15:00
6:35 AM,19.4,17.6,93,30.04,10.0,Calm,Calm,-,N/A,,Clear,0,2014-04-04 11:35:00
6:55 AM,19.4,17.6,93,30.03,10.0,ESE,5.8,-,N/A,,Clear,120,2014-04-04 11:55:00
7:15 AM,19.4,17.6,93,30.03,10.0,ESE,3.5,-,N/A,,Clear,110,2014-04-04 12:15:00
7:35 AM,19.4,17.6,93,30.03,10.0,ESE,3.5,-,N/A,,Clear,120,2014-04-04 12:35:00
7:55 AM,21.2,19.4,93,30.03,10.0,SE,4.6,-,N/A,,Clear,130,2014-04-04 12:55:00
8:15 AM,23.0,19.4,86,30.02,10.0,ESE,6.9,-,N/A,,Clear,120,2014-04-04 13:15:00
8:35 AM,23.0,21.2,93,30.02,10.0,ESE,8.1,-,N/A,,Clear,120,2014-04-04 13:35:00
8:55 AM,24.8,23.0,93,30.01,10.0,ESE,9.2,-,N/A,,Clear,120,2014-04-04 13:55:00
9:15 AM,26.6,23.0,86,30.01,10.0,SE,10.4,-,N/A,,Clear,130,2014-04-04 14:15:00
9:35 AM,28.4,23.0,80,30.01,10.0,SE,8.1,-,N/A,,Clear,130,2014-04-04 14:35:00
10:15 AM,30.2,24.8,80,30.00,10.0,SSE,8.1,-,N/A,,Clear,150,2014-04-04 15:15:00
10:35 AM,32.0,24.8,75,29.99,10.0,SSE,8.1,-,N/A,,Clear,160,2014-04-04 15:35:00
10:55 AM,32.0,26.6,80,29.98,10.0,SSE,11.5,16.1,N/A,,Clear,150,2014-04-04 15:55:00
11:15 AM,32.0,26.6,80,29.98,10.0,SSE,11.5,-,N/A,,Clear,150,2014-04-04 16:15:00
11:35 AM,35.6,26.6,70,29.97,10.0,SSE,13.8,-,N/A,,Clear,160,2014-04-04 16:35:00
11:55 AM,35.6,26.6,70,29.97,10.0,South,13.8,18.4,N/A,,Clear,170,2014-04-04 16:55:00
12:15 PM,35.6,28.4,75,29.96,10.0,SSE,13.8,-,N/A,,Clear,160,2014-04-04 17:15:00
12:35 PM,37.4,28.4,70,29.95,10.0,SSE,12.7,-,N/A,,Clear,150,2014-04-04 17:35:00
12:55 PM,37.4,28.4,70,29.94,10.0,SSE,15.0,-,N/A,,Clear,150,2014-04-04 17:55:00
1:15 PM,37.4,28.4,70,29.92,10.0,SE,15.0,19.6,N/A,,Clear,140,2014-04-04 18:15:00
1:55 PM,39.2,28.4,65,29.90,10.0,SSE,13.8,18.4,N/A,,Clear,150,2014-04-04 18:55:00
2:15 PM,39.2,28.4,65,29.89,10.0,South,15.0,21.9,N/A,,Clear,170,2014-04-04 19:15:00
2:35 PM,41.0,28.4,61,29.88,10.0,SSE,13.8,21.9,N/A,,Clear,160,2014-04-04 19:35:00
2:55 PM,41.0,26.6,57,29.87,10.0,SSE,12.7,24.2,N/A,,Clear,160,2014-04-04 19:55:00
3:15 PM,41.0,26.6,57,29.86,10.0,SSE,16.1,-,N/A,,Clear,150,2014-04-04 20:15:00
3:35 PM,42.8,26.6,53,29.85,10.0,SSE,18.4,23.0,N/A,,Clear,160,2014-04-04 20:35:00
3:55 PM,41.0,26.6,57,29.84,10.0,South,19.6,27.6,N/A,,Clear,170,2014-04-04 20:55:00
4:15 PM,41.0,26.6,57,29.83,10.0,SSE,20.7,28.8,N/A,,Clear,160,2014-04-04 21:15:00
4:35 PM,41.0,26.6,57,29.82,10.0,SSE,20.7,29.9,N/A,,Clear,150,2014-04-04 21:35:00
4:55 PM,41.0,26.6,57,29.80,10.0,SSE,21.9,28.8,N/A,,Clear,160,2014-04-04 21:55:00
5:15 PM,41.0,26.6,57,29.79,10.0,SSE,21.9,28.8,N/A,,Clear,160,2014-04-04 22:15:00
5:35 PM,41.0,28.4,61,29.79,10.0,SSE,21.9,31.1,N/A,,Clear,160,2014-04-04 22:35:00
5:55 PM,41.0,28.4,61,29.79,10.0,South,16.1,27.6,N/A,,Clear,170,2014-04-04 22:55:00
6:15 PM,41.0,28.4,61,29.79,10.0,South,17.3,23.0,N/A,,Clear,170,2014-04-04 23:15:00
6:35 PM,39.2,28.4,65,29.78,10.0,South,17.3,26.5,N/A,,Clear,170,2014-04-04 23:35:00
6:55 PM,39.2,28.4,65,29.77,10.0,South,16.1,26.5,N/A,,Clear,180,2014-04-04 23:55:00
7:15 PM,39.2,28.4,65,29.77,10.0,South,15.0,25.3,N/A,,Clear,180,2014-04-05 00:15:00
7:35 PM,37.4,28.4,70,29.77,10.0,South,13.8,20.7,N/A,,Clear,180,2014-04-05 00:35:00
7:55 PM,37.4,28.4,70,29.77,10.0,SSE,9.2,-,N/A,,Clear,150,2014-04-05 00:55:00
8:15 PM,35.6,26.6,70,29.76,10.0,SSE,9.2,-,N/A,,Clear,150,2014-04-05 01:15:00
8:35 PM,35.6,26.6,70,29.77,10.0,SSE,4.6,-,N/A,,Clear,160,2014-04-05 01:35:00
8:55 PM,33.8,26.6,75,29.76,10.0,SSE,8.1,-,N/A,,Partly Cloudy,150,2014-04-05 01:55:00
9:15 PM,33.8,28.4,81,29.76,10.0,SSE,8.1,-,N/A,,Clear,150,2014-04-05 02:15:00
9:35 PM,33.8,28.4,81,29.76,10.0,SSE,6.9,-,N/A,,Clear,150,2014-04-05 02:35:00
9:55 PM,33.8,28.4,81,29.76,10.0,SSE,6.9,-,N/A,,Clear,160,2014-04-05 02:55:00
10:15 PM,33.8,28.4,81,29.75,10.0,South,8.1,-,N/A,,Clear,180,2014-04-05 03:15:00
10:35 PM,35.6,28.4,75,29.75,10.0,South,9.2,-,N/A,,Clear,190,2014-04-05 03:35:00
10:55 PM,35.6,26.6,70,29.75,10.0,SSW,12.7,18.4,N/A,,Clear,200,2014-04-05 03:55:00
11:15 PM,35.6,26.6,70,29.74,10.0,SSW,11.5,-,N/A,,Clear,200,2014-04-05 04:15:00
11:35 PM,35.6,26.6,70,29.74,10.0,SSW,10.4,-,N/A,,Clear,210,2014-04-05 04:35:00
11:55 PM,35.6,26.6,70,29.74,10.0,SSW,9.2,-,N/A,,Clear,210,2014-04-05 04:55:00